Time;durP1;ratioP1;P1;durP2;ratioP2;P2;SDS_P1;SDS_P2;PMS_P1;PMS_P2;Temp;Humidity;BMP_temperature;BMP_pressure;BME280_temperature;BME280_humidity;BME280_pressure;Samples;Min_cycle;Max_cycle;Signal;HPM_P1;HPM_P2
2022/08/24 00:00:23;;;;;;;2.50;2.30;;;21.20;99.90;;;;;;4931218;29;20858;-74
2022/08/24 00:03:11;;;;;;;3.40;2.60;;;21.10;99.90;;;;;;4929908;29;20558;-73
2022/08/24 00:06:01;;;;;;;4.03;2.70;;;21.10;99.90;;;;;;4921985;28;20479;-74
2022/08/24 00:08:51;;;;;;;4.00;2.77;;;21.00;99.90;;;;;;4926506;29;20444;-73
2022/08/24 00:11:39;;;;;;;4.03;2.80;;;21.00;99.90;;;;;;4928193;29;20555;-74
2022/08/24 00:14:38;;;;;;;3.30;2.70;;;21.00;99.90;;;;;;4928864;29;20472;-73
2022/08/24 00:17:26;;;;;;;2.40;2.20;;;20.90;99.90;;;;;;4929917;29;20452;-73
2022/08/24 00:20:29;;;;;;;2.60;2.40;;;20.90;99.90;;;;;;4932894;29;20468;-74
2022/08/24 00:23:18;;;;;;;5.73;2.47;;;20.80;99.90;;;;;;4934776;29;20496;-74
2022/08/24 00:26:11;;;;;;;2.63;2.43;;;20.80;99.90;;;;;;4927357;29;21085;-74
2022/08/24 00:29:08;;;;;;;3.30;2.57;;;20.70;99.90;;;;;;4931998;29;20459;-73
2022/08/24 00:31:59;;;;;;;3.20;2.90;;;20.70;99.90;;;;;;4933271;29;20456;-74
2022/08/24 00:34:49;;;;;;;2.70;2.50;;;20.70;99.90;;;;;;4932583;29;20984;-74
2022/08/24 00:37:49;;;;;;;3.47;2.70;;;20.70;99.90;;;;;;4932267;29;20448;-74
2022/08/24 00:40:40;;;;;;;3.53;2.80;;;20.60;99.90;;;;;;4935963;28;20456;-74
2022/08/24 00:43:29;;;;;;;2.90;2.60;;;20.60;99.90;;;;;;4933521;29;20940;-74
2022/08/24 00:46:21;;;;;;;3.30;2.50;;;20.60;99.90;;;;;;4928519;29;20526;-74
2022/08/24 00:49:19;;;;;;;2.97;2.67;;;20.50;99.90;;;;;;4928498;29;20468;-74
2022/08/24 00:52:14;;;;;;;3.63;2.97;;;20.50;99.90;;;;;;4934101;29;21100;-74
2022/08/24 00:55:07;;;;;;;3.10;2.80;;;20.50;99.90;;;;;;4930493;29;20494;-74
2022/08/24 00:58:01;;;;;;;2.83;2.63;;;20.40;99.90;;;;;;4933149;29;20527;-73
2022/08/24 01:00:57;;;;;;;2.87;2.67;;;20.40;99.90;;;;;;4934403;29;20440;-74
2022/08/24 01:03:46;;;;;;;3.30;2.83;;;20.30;99.90;;;;;;4933268;28;20475;-74
2022/08/24 01:06:40;;;;;;;2.93;2.73;;;20.30;99.90;;;;;;4930267;29;20578;-74
2022/08/24 01:09:31;;;;;;;4.63;2.80;;;20.30;99.90;;;;;;4934625;28;20867;-74
2022/08/24 01:12:21;;;;;;;3.90;3.00;;;20.20;99.90;;;;;;4932239;29;21012;-74
2022/08/24 01:15:12;;;;;;;3.30;2.80;;;20.20;99.90;;;;;;4933861;29;20483;-74
2022/08/24 01:21:14;;;;;;;2.63;2.43;;;20.10;99.90;;;;;;4928121;29;20972;-74
2022/08/24 01:24:10;;;;;;;3.20;2.93;;;20.10;99.90;;;;;;4930971;29;20583;-74
2022/08/24 01:26:59;;;;;;;3.10;2.90;;;20.10;99.90;;;;;;4932584;29;21300;-74
2022/08/24 01:29:51;;;;;;;3.10;2.80;;;20.10;99.90;;;;;;4929817;29;20452;-73
2022/08/24 01:32:40;;;;;;;2.87;2.50;;;20.10;99.90;;;;;;4931182;28;20988;-74
2022/08/24 01:35:30;;;;;;;3.23;2.93;;;20.00;99.90;;;;;;4930960;29;20551;-73
2022/08/24 01:38:26;;;;;;;5.27;2.90;;;20.00;99.90;;;;;;4930594;28;20535;-72
2022/08/24 01:41:15;;;;;;;5.17;3.40;;;20.00;99.90;;;;;;4930948;29;20971;-72
2022/08/24 01:44:05;;;;;;;3.00;2.80;;;20.00;99.90;;;;;;4929974;29;20528;-72
2022/08/24 01:46:56;;;;;;;4.00;3.00;;;20.00;99.90;;;;;;4933598;29;20819;-72
2022/08/24 01:49:47;;;;;;;3.87;3.53;;;19.90;99.90;;;;;;4931606;29;20444;-72
2022/08/24 01:52:38;;;;;;;3.30;2.80;;;19.90;99.90;;;;;;4933131;29;20500;-71
2022/08/24 01:55:57;;;;;;;3.40;3.10;;;19.80;99.90;;;;;;4932925;28;20471;-72
2022/08/24 01:58:55;;;;;;;3.10;2.87;;;19.80;99.90;;;;;;4933375;29;20568;-72
2022/08/24 02:01:49;;;;;;;3.37;2.70;;;19.80;99.90;;;;;;4931670;29;20475;-72
2022/08/24 02:04:54;;;;;;;3.50;3.20;;;19.70;99.90;;;;;;4927625;29;20486;-72
2022/08/24 02:07:48;;;;;;;3.00;2.70;;;19.70;99.90;;;;;;4928636;29;20488;-73
2022/08/24 02:10:36;;;;;;;3.93;3.00;;;19.70;99.90;;;;;;4924261;29;20562;-73
2022/08/24 02:13:36;;;;;;;4.13;3.67;;;19.60;99.90;;;;;;4930970;29;20541;-72
2022/08/24 02:17:03;;;;;;;4.93;3.13;;;19.60;99.90;;;;;;4928511;29;21304;-72
2022/08/24 02:20:08;;;;;;;3.50;3.00;;;19.60;99.90;;;;;;4927766;29;20471;-72
2022/08/24 02:23:02;;;;;;;3.33;3.00;;;19.60;99.90;;;;;;4929383;29;20502;-73
2022/08/24 02:25:55;;;;;;;3.43;2.80;;;19.60;99.90;;;;;;4932600;29;20563;-73
2022/08/24 02:28:47;;;;;;;3.73;2.73;;;19.60;99.90;;;;;;4930865;29;20487;-73
2022/08/24 02:31:49;;;;;;;3.47;3.17;;;19.60;99.90;;;;;;4927514;29;20882;-73
2022/08/24 02:34:38;;;;;;;3.13;2.83;;;19.60;99.90;;;;;;4929255;29;20551;-73
2022/08/24 02:37:27;;;;;;;3.43;3.00;;;19.50;99.90;;;;;;4928138;29;20475;-73
2022/08/24 02:40:18;;;;;;;5.50;2.97;;;19.40;99.90;;;;;;4928714;29;20459;-72
2022/08/24 02:43:06;;;;;;;4.60;3.20;;;19.40;99.90;;;;;;4932125;29;20551;-72
2022/08/24 02:49:10;;;;;;;3.90;3.60;;;19.40;99.90;;;;;;4930205;28;20600;-73
2022/08/24 02:52:10;;;;;;;3.40;3.17;;;19.40;99.90;;;;;;4931288;29;20998;-72
2022/08/24 02:55:15;;;;;;;5.33;3.40;;;19.40;99.90;;;;;;4928652;29;20483;-73
2022/08/24 02:58:12;;;;;;;4.00;3.07;;;19.30;99.90;;;;;;4931934;29;21054;-73
2022/08/24 03:01:05;;;;;;;3.60;3.30;;;19.30;99.90;;;;;;4930473;29;20476;-73
2022/08/24 03:04:23;;;;;;;3.30;3.00;;;19.30;99.90;;;;;;4929369;29;20483;-73
2022/08/24 03:07:16;;;;;;;3.30;3.00;;;19.20;99.90;;;;;;4930655;29;20596;-72
2022/08/24 03:10:20;;;;;;;5.60;3.50;;;19.20;99.90;;;;;;4931549;29;20451;-73
2022/08/24 03:13:10;;;;;;;3.60;3.27;;;19.10;99.90;;;;;;4930161;29;20459;-72
2022/08/24 03:16:01;;;;;;;3.83;3.57;;;19.10;99.90;;;;;;4927160;29;20480;-72
2022/08/24 03:18:49;;;;;;;3.60;3.30;;;19.10;99.90;;;;;;4928133;28;20547;-72
2022/08/24 03:21:53;;;;;;;4.47;3.40;;;19.20;99.90;;;;;;4930713;29;20838;-72
2022/08/24 03:24:43;;;;;;;4.40;3.03;;;19.10;99.90;;;;;;4931610;29;20558;-73
2022/08/24 03:27:42;;;;;;;3.87;3.47;;;19.10;99.90;;;;;;4928234;29;20611;-72
2022/08/24 03:30:37;;;;;;;3.53;3.23;;;19.10;99.90;;;;;;4927289;29;20527;-72
2022/08/24 03:33:35;;;;;;;4.00;3.60;;;19.00;99.90;;;;;;4929365;29;20456;-72
2022/08/24 03:36:23;;;;;;;3.53;3.23;;;19.00;99.90;;;;;;4929552;29;20558;-75
2022/08/24 03:39:13;;;;;;;3.80;3.40;;;19.00;99.90;;;;;;4929881;29;20488;-73
2022/08/24 03:42:02;;;;;;;6.23;3.90;;;19.00;99.90;;;;;;4928267;29;20487;-73
2022/08/24 03:44:54;;;;;;;3.80;3.50;;;18.90;99.90;;;;;;4930562;29;20599;-72
2022/08/24 03:47:44;;;;;;;3.50;3.20;;;18.90;99.90;;;;;;4928049;29;20464;-72
2022/08/24 03:50:37;;;;;;;3.70;3.40;;;18.90;99.90;;;;;;4929602;29;21023;-73
2022/08/24 03:53:35;;;;;;;4.90;3.57;;;18.90;99.90;;;;;;4928261;29;20952;-73
2022/08/24 03:56:30;;;;;;;3.83;3.50;;;18.80;99.90;;;;;;4929632;29;20476;-72
2022/08/24 03:59:19;;;;;;;5.70;3.30;;;18.80;99.90;;;;;;4929299;29;20456;-73
2022/08/24 04:02:16;;;;;;;4.37;3.97;;;18.80;99.90;;;;;;4926563;29;20468;-73
2022/08/24 04:05:09;;;;;;;4.33;3.40;;;18.80;99.90;;;;;;4931184;29;20611;-73
2022/08/24 04:08:06;;;;;;;3.80;3.50;;;18.80;99.90;;;;;;4929985;29;20444;-73
2022/08/24 04:10:56;;;;;;;3.70;3.40;;;18.80;99.90;;;;;;4926536;29;20559;-73
2022/08/24 04:13:46;;;;;;;4.00;3.50;;;18.70;99.90;;;;;;4924717;29;20563;-73
2022/08/24 04:16:35;;;;;;;4.43;3.93;;;18.70;99.90;;;;;;4923431;29;20491;-73
2022/08/24 04:19:28;;;;;;;4.73;4.40;;;18.70;99.90;;;;;;4930181;29;20507;-72
2022/08/24 04:22:19;;;;;;;3.90;3.50;;;18.60;99.90;;;;;;4929840;29;20460;-73
2022/08/24 04:25:10;;;;;;;4.37;3.97;;;18.60;99.90;;;;;;4930988;29;20491;-72
2022/08/24 04:27:58;;;;;;;4.03;3.73;;;18.60;99.90;;;;;;4930706;29;20468;-73
2022/08/24 04:30:49;;;;;;;4.10;3.70;;;18.60;99.90;;;;;;4926857;29;20599;-75
2022/08/24 04:33:43;;;;;;;5.50;3.97;;;18.60;99.90;;;;;;4919470;29;20460;-72
2022/08/24 04:36:35;;;;;;;5.13;3.87;;;18.60;99.90;;;;;;4928259;28;20479;-72
2022/08/24 04:39:25;;;;;;;4.40;4.00;;;18.60;99.90;;;;;;4925573;29;21279;-74
2022/08/24 04:42:14;;;;;;;6.63;4.17;;;18.60;99.90;;;;;;4925426;29;20994;-73
2022/08/24 04:45:02;;;;;;;4.70;4.00;;;18.60;99.90;;;;;;4928250;29;20531;-72
2022/08/24 04:47:55;;;;;;;4.60;4.17;;;18.60;99.90;;;;;;4940285;29;20448;-71
2022/08/24 04:50:45;;;;;;;4.37;4.00;;;18.60;99.90;;;;;;4937169;29;21049;-70
2022/08/24 04:53:35;;;;;;;6.13;4.17;;;18.60;99.90;;;;;;4937331;29;20480;-69
2022/08/24 04:56:28;;;;;;;4.17;3.63;;;18.60;99.90;;;;;;4940395;29;20535;-69
2022/08/24 04:59:22;;;;;;;4.03;3.73;;;18.60;99.90;;;;;;4936658;29;20559;-69
2022/08/24 05:02:15;;;;;;;5.40;4.50;;;18.60;99.90;;;;;;4935524;29;20474;-69
2022/08/24 05:05:04;;;;;;;4.87;4.40;;;18.60;99.90;;;;;;4927137;29;21014;-69
2022/08/24 05:08:10;;;;;;;4.70;4.00;;;18.60;99.90;;;;;;4928790;29;20450;-69
2022/08/24 05:11:05;;;;;;;7.53;5.00;;;18.60;99.90;;;;;;4931992;29;20560;-69
2022/08/24 05:13:55;;;;;;;4.77;4.40;;;18.50;99.90;;;;;;4923689;29;21114;-69
2022/08/24 05:16:43;;;;;;;7.50;5.17;;;18.50;99.90;;;;;;4921245;29;20515;-71
2022/08/24 05:19:40;;;;;;;5.63;4.30;;;18.50;99.90;;;;;;4914976;29;20463;-70
2022/08/24 05:22:35;;;;;;;5.90;4.70;;;18.50;99.90;;;;;;4930633;29;20833;-69
2022/08/24 05:25:27;;;;;;;4.73;4.33;;;18.50;99.90;;;;;;4924945;28;20618;-69
2022/08/24 05:28:16;;;;;;;5.53;4.60;;;18.60;99.90;;;;;;4921529;29;20475;-69
2022/08/24 05:31:09;;;;;;;5.40;4.20;;;18.60;99.90;;;;;;4926424;29;20655;-69
2022/08/24 05:33:59;;;;;;;4.80;4.40;;;18.50;99.90;;;;;;4924049;29;21047;-69
2022/08/24 05:36:59;;;;;;;6.10;4.83;;;18.60;99.90;;;;;;4919866;29;20619;-69
2022/08/24 05:40:07;;;;;;;6.20;4.57;;;18.60;99.90;;;;;;4921950;29;20504;-69
2022/08/24 05:42:58;;;;;;;8.00;4.60;;;18.60;99.90;;;;;;4927509;29;20929;-69
2022/08/24 05:45:59;;;;;;;5.83;4.67;;;18.70;99.90;;;;;;4924888;29;20542;-69
2022/08/24 05:49:02;;;;;;;5.23;4.70;;;18.70;99.90;;;;;;4924486;29;20509;-69
2022/08/24 05:51:54;;;;;;;4.73;4.33;;;18.70;99.90;;;;;;4930478;29;20476;-69
2022/08/24 05:54:45;;;;;;;5.37;4.73;;;18.80;99.90;;;;;;4931683;29;20502;-69
2022/08/24 06:01:04;;;;;;;4.67;4.27;;;18.80;99.90;;;;;;4929906;29;20467;-69
2022/08/24 06:04:01;;;;;;;5.20;4.30;;;18.90;99.90;;;;;;4917569;29;20698;-69
2022/08/24 06:06:50;;;;;;;5.10;4.70;;;18.90;99.90;;;;;;4921424;29;20468;-69
2022/08/24 06:09:47;;;;;;;11.80;5.03;;;19.00;99.90;;;;;;4929691;29;20480;-69
2022/08/24 06:12:35;;;;;;;5.30;4.80;;;19.00;99.90;;;;;;4929099;28;21032;-69
2022/08/24 06:15:23;;;;;;;4.40;4.00;;;19.00;99.90;;;;;;4929941;29;21054;-68
2022/08/24 06:18:13;;;;;;;10.00;4.17;;;19.00;99.90;;;;;;4930982;28;20912;-68
2022/08/24 06:21:05;;;;;;;5.67;5.03;;;19.10;99.90;;;;;;4929308;29;20455;-69
2022/08/24 06:23:53;;;;;;;6.20;5.60;;;19.10;99.90;;;;;;4930390;29;21126;-69
2022/08/24 06:29:48;;;;;;;5.63;5.00;;;19.20;99.90;;;;;;4930850;29;20472;-69
2022/08/24 06:32:37;;;;;;;4.50;4.13;;;19.20;99.90;;;;;;4928267;29;20467;-68
2022/08/24 06:35:27;;;;;;;5.43;5.03;;;19.30;99.90;;;;;;4930058;29;20565;-69
2022/08/24 06:38:16;;;;;;;5.47;4.97;;;19.30;99.90;;;;;;4929279;29;21006;-69
2022/08/24 06:41:08;;;;;;;5.60;4.70;;;19.40;99.90;;;;;;4928894;29;20467;-69
2022/08/24 06:43:56;;;;;;;5.63;5.03;;;19.40;99.90;;;;;;4927629;29;21051;-69
2022/08/24 06:46:45;;;;;;;4.93;4.53;;;19.40;99.90;;;;;;4928018;29;20567;-69
2022/08/24 06:49:33;;;;;;;5.20;4.70;;;19.50;99.90;;;;;;4926892;29;20952;-69
2022/08/24 06:52:22;;;;;;;4.77;4.40;;;19.50;99.90;;;;;;4931811;29;20595;-69
2022/08/24 06:55:11;;;;;;;6.70;5.20;;;19.60;99.90;;;;;;4930042;29;20576;-69
2022/08/24 06:58:01;;;;;;;4.43;4.03;;;19.60;99.90;;;;;;4928785;29;20550;-68
2022/08/24 07:00:49;;;;;;;4.50;4.20;;;19.70;99.90;;;;;;4927541;29;20526;-69
2022/08/24 07:03:39;;;;;;;5.27;4.77;;;19.70;99.90;;;;;;4926927;29;20591;-69
2022/08/24 07:06:27;;;;;;;7.03;5.17;;;19.80;99.90;;;;;;4929842;29;20480;-69
2022/08/24 07:09:17;;;;;;;4.33;4.00;;;19.90;99.90;;;;;;4931055;29;20562;-69
2022/08/24 07:12:06;;;;;;;5.07;4.57;;;19.90;99.90;;;;;;4928734;29;21506;-69
2022/08/24 07:14:57;;;;;;;7.10;4.30;;;20.00;99.90;;;;;;4926517;29;20515;-69
2022/08/24 07:17:46;;;;;;;4.83;4.13;;;20.10;99.90;;;;;;4928065;29;20549;-69
2022/08/24 07:20:34;;;;;;;5.33;4.83;;;20.10;99.90;;;;;;4927547;29;20599;-69
2022/08/24 07:23:22;;;;;;;7.20;5.30;;;20.20;99.90;;;;;;4928814;29;20563;-70
2022/08/24 07:26:31;;;;;;;5.00;4.50;;;20.30;99.90;;;;;;4927119;29;20476;-69
2022/08/24 07:29:21;;;;;;;4.33;3.93;;;20.40;99.90;;;;;;4927854;29;20631;-69
2022/08/24 07:32:29;;;;;;;4.97;4.57;;;20.40;99.90;;;;;;4922210;29;20448;-70
2022/08/24 07:35:17;;;;;;;5.47;4.63;;;20.50;99.90;;;;;;4927682;29;20484;-70
2022/08/24 07:38:07;;;;;;;8.60;5.13;;;20.60;99.90;;;;;;4929410;29;20559;-69
2022/08/24 07:40:58;;;;;;;5.00;4.60;;;20.60;99.90;;;;;;4929124;29;20574;-69
2022/08/24 07:44:11;;;;;;;4.60;4.30;;;20.70;99.90;;;;;;4928018;29;22217;-69
2022/08/24 07:47:03;;;;;;;4.40;4.10;;;20.80;99.90;;;;;;4927970;29;21003;-69
2022/08/24 07:50:12;;;;;;;5.03;4.53;;;20.90;99.90;;;;;;4929895;29;20487;-70
2022/08/24 07:53:01;;;;;;;5.03;4.53;;;20.90;99.90;;;;;;4931347;28;20468;-70
2022/08/24 07:55:56;;;;;;;5.20;4.30;;;21.00;99.90;;;;;;4926710;29;20488;-69
2022/08/24 07:58:46;;;;;;;4.77;4.37;;;21.10;99.90;;;;;;4929108;29;20960;-69
2022/08/24 08:01:36;;;;;;;5.23;4.30;;;21.20;99.90;;;;;;4929522;29;20512;-69
2022/08/24 08:04:25;;;;;;;5.03;4.50;;;21.30;99.90;;;;;;4929728;29;20463;-70
2022/08/24 08:07:16;;;;;;;5.53;4.90;;;21.40;99.90;;;;;;4929753;29;20538;-70
2022/08/24 08:10:06;;;;;;;5.90;4.93;;;21.50;99.90;;;;;;4928843;29;20518;-69
2022/08/24 08:12:54;;;;;;;5.37;4.87;;;21.50;99.90;;;;;;4929453;29;20551;-69
2022/08/24 08:15:44;;;;;;;7.00;4.87;;;21.60;99.90;;;;;;4927415;29;21014;-69
2022/08/24 08:18:34;;;;;;;5.50;5.00;;;21.70;99.90;;;;;;4930466;29;20992;-69
2022/08/24 08:24:29;;;;;;;5.17;4.70;;;21.80;99.90;;;;;;4928755;29;20614;-69
2022/08/24 08:27:19;;;;;;;6.83;4.70;;;21.90;99.90;;;;;;4926388;29;20468;-70
2022/08/24 08:30:12;;;;;;;6.20;4.80;;;22.00;99.90;;;;;;4924608;29;20721;-69
2022/08/24 08:33:02;;;;;;;5.80;4.73;;;22.10;99.90;;;;;;4928659;29;20551;-69
2022/08/24 08:36:02;;;;;;;5.30;4.63;;;22.10;99.90;;;;;;4927943;29;20582;-69
2022/08/24 08:38:54;;;;;;;5.03;4.53;;;22.20;99.90;;;;;;4932108;29;21039;-69
2022/08/24 08:42:16;;;;;;;5.10;4.70;;;22.30;99.90;;;;;;4931692;29;20553;-69
2022/08/24 08:45:21;;;;;;;5.20;4.70;;;22.40;99.90;;;;;;4928267;29;20570;-70
2022/08/24 08:48:46;;;;;;;5.07;4.77;;;22.40;99.90;;;;;;4931457;29;20968;-69
2022/08/24 08:52:09;;;;;;;5.10;4.67;;;22.60;99.90;;;;;;4930116;29;20991;-69
2022/08/24 08:55:05;;;;;;;5.50;5.00;;;22.70;99.90;;;;;;4921761;29;20603;-70
2022/08/24 08:58:05;;;;;;;5.20;4.70;;;22.80;99.90;;;;;;4929540;29;20488;-69
2022/08/24 09:01:01;;;;;;;6.23;4.83;;;22.80;99.90;;;;;;4930591;29;20452;-70
2022/08/24 09:04:15;;;;;;;5.10;4.70;;;23.00;99.90;;;;;;4932747;29;20834;-69
2022/08/24 09:07:24;;;;;;;7.30;5.00;;;23.00;99.90;;;;;;4929802;29;20471;-70
2022/08/24 09:10:35;;;;;;;5.13;4.73;;;23.10;99.90;;;;;;4932869;29;20557;-69
2022/08/24 09:13:50;;;;;;;5.03;4.73;;;23.30;99.90;;;;;;4932899;29;20504;-70
2022/08/24 09:16:58;;;;;;;4.00;3.80;;;23.30;99.90;;;;;;4931486;29;20570;-69
2022/08/24 09:20:05;;;;;;;5.60;5.03;;;23.40;99.90;;;;;;4931745;29;20839;-69
2022/08/24 09:23:08;;;;;;;6.80;4.70;;;23.40;99.90;;;;;;4931398;29;20479;-69
2022/08/24 09:26:02;;;;;;;6.20;4.90;;;23.50;99.90;;;;;;4930108;29;20491;-69
2022/08/24 09:28:58;;;;;;;5.90;4.80;;;23.60;99.90;;;;;;4933042;29;20464;-70
2022/08/24 09:32:00;;;;;;;4.80;4.40;;;23.70;99.90;;;;;;4931227;29;20479;-70
2022/08/24 09:35:02;;;;;;;5.83;4.30;;;23.80;99.90;;;;;;4929413;29;20566;-70
2022/08/24 09:38:00;;;;;;;4.77;4.37;;;23.80;99.90;;;;;;4930202;29;20483;-70
2022/08/24 09:41:17;;;;;;;4.87;4.47;;;23.90;99.90;;;;;;4930491;29;20516;-69
2022/08/24 09:44:38;;;;;;;5.10;4.57;;;24.00;99.90;;;;;;4932476;29;20956;-70
2022/08/24 09:47:56;;;;;;;4.60;4.10;;;24.00;99.90;;;;;;4928189;29;20460;-69
2022/08/24 09:51:23;;;;;;;5.70;4.00;;;24.10;99.90;;;;;;4932852;29;20456;-69
2022/08/24 09:54:56;;;;;;;3.60;3.30;;;24.30;99.90;;;;;;4930612;29;20487;-70
2022/08/24 09:57:58;;;;;;;3.97;3.57;;;24.40;99.90;;;;;;4911689;29;20460;-70
2022/08/24 10:00:55;;;;;;;4.97;4.47;;;24.50;99.90;;;;;;4928259;29;20480;-70
2022/08/24 10:04:04;;;;;;;4.33;3.67;;;24.60;99.90;;;;;;4930070;29;20467;-70
2022/08/24 10:07:06;;;;;;;3.87;3.57;;;24.70;99.90;;;;;;4931096;29;21386;-70
2022/08/24 10:10:13;;;;;;;4.30;3.90;;;24.80;99.90;;;;;;4928032;29;20590;-70
2022/08/24 10:13:14;;;;;;;4.27;3.97;;;24.90;99.90;;;;;;4928178;28;21087;-70
2022/08/24 10:16:20;;;;;;;4.97;3.63;;;24.90;99.90;;;;;;4929028;29;20584;-69
2022/08/24 10:19:36;;;;;;;4.40;4.00;;;25.00;99.90;;;;;;4928368;29;20459;-70
2022/08/24 10:22:40;;;;;;;4.07;3.77;;;25.10;99.90;;;;;;4927439;29;20539;-70
2022/08/24 10:25:37;;;;;;;4.60;4.20;;;25.20;99.90;;;;;;4928274;29;20498;-72
2022/08/24 10:29:02;;;;;;;4.27;3.37;;;25.20;99.90;;;;;;4928357;29;20522;-70
2022/08/24 10:32:07;;;;;;;4.73;3.80;;;25.30;99.90;;;;;;4926538;29;20484;-69
2022/08/24 10:35:03;;;;;;;3.90;3.60;;;25.40;99.90;;;;;;4930074;29;20476;-70
2022/08/24 10:42:00;;;;;;;3.70;3.50;;;25.60;99.90;;;;;;4925650;29;20547;-74
2022/08/24 10:44:55;;;;;;;4.37;3.70;;;25.70;99.90;;;;;;4930258;29;20988;-73
2022/08/24 10:47:58;;;;;;;4.33;3.93;;;25.80;99.90;;;;;;4930465;28;20460;-73
2022/08/24 10:50:56;;;;;;;3.60;3.30;;;25.80;99.90;;;;;;4929107;29;20502;-73
2022/08/24 10:53:49;;;;;;;4.13;3.83;;;25.90;99.90;;;;;;4929587;29;20611;-76
2022/08/24 10:56:42;;;;;;;3.57;3.37;;;26.00;99.90;;;;;;4925290;29;20569;-74
2022/08/24 10:59:42;;;;;;;6.50;3.70;;;26.10;99.90;;;;;;4931472;28;20934;-74
2022/08/24 11:02:32;;;;;;;3.70;3.50;;;26.20;99.90;;;;;;4928390;29;21071;-74
2022/08/24 11:05:34;;;;;;;3.93;3.60;;;26.30;99.90;;;;;;4930661;29;20495;-75
2022/08/24 11:08:25;;;;;;;4.10;3.80;;;26.40;99.90;;;;;;4928875;29;20500;-75
2022/08/24 11:11:22;;;;;;;3.50;3.20;;;26.50;99.90;;;;;;4930453;29;20475;-73
2022/08/24 11:14:28;;;;;;;4.03;3.70;;;26.50;99.90;;;;;;4930688;29;20464;-74
2022/08/24 11:17:19;;;;;;;3.90;3.60;;;26.70;99.90;;;;;;4928469;29;20904;-74
2022/08/24 11:20:26;;;;;;;3.60;3.40;;;26.70;99.90;;;;;;4932343;29;20950;-75
2022/08/24 11:23:17;;;;;;;3.20;3.00;;;26.80;99.90;;;;;;4930946;28;20546;-73
2022/08/24 11:26:18;;;;;;;5.00;3.53;;;26.90;99.90;;;;;;4926616;29;20504;-73
2022/08/24 11:29:06;;;;;;;3.73;3.30;;;27.00;99.90;;;;;;4927546;28;20827;-74
2022/08/24 11:32:01;;;;;;;4.30;2.93;;;27.00;99.90;;;;;;4926908;29;20571;-74
2022/08/24 11:34:50;;;;;;;4.00;3.50;;;27.10;99.90;;;;;;4923996;29;20487;-75
2022/08/24 11:37:39;;;;;;;3.40;3.10;;;27.20;99.90;;;;;;4923731;29;20479;-75
2022/08/24 11:40:28;;;;;;;3.53;3.23;;;;;;;;;;4925118;29;20542;-73
2022/08/24 11:43:23;;;;;;;4.03;3.10;;;;;;;;;;4920186;29;20960;-73
2022/08/24 11:46:18;;;;;;;3.27;2.97;;;;;;;;;;4922281;29;20493;-74
2022/08/24 11:49:10;;;;;;;4.63;3.60;;;;;;;;;;4924469;29;20465;-74
2022/08/24 11:52:03;;;;;;;3.57;3.20;;;;;;;;;;4924636;29;20741;-74
2022/08/24 11:54:56;;;;;;;4.83;3.10;;;;;;;;;;4926296;29;20490;-75
2022/08/24 11:57:47;;;;;;;4.10;3.70;;;;;;;;;;4928709;29;20464;-73
2022/08/24 12:00:45;;;;;;;5.00;3.30;;;27.30;99.90;;;;;;4926908;29;20468;-74
2022/08/24 12:03:49;;;;;;;4.00;3.60;;;28.20;99.90;;;;;;4924335;28;20543;-72
2022/08/24 12:06:50;;;;;;;3.20;3.00;;;28.30;99.90;;;;;;4920764;29;20486;-74
2022/08/24 12:09:55;;;;;;;4.67;2.80;;;28.40;99.90;;;;;;4926389;28;21042;-72
2022/08/24 12:12:49;;;;;;;3.53;3.23;;;28.60;99.90;;;;;;4926777;29;21243;-72
2022/08/24 12:15:46;;;;;;;4.97;3.27;;;28.70;99.90;;;;;;4927279;29;20865;-75
2022/08/24 12:18:50;;;;;;;3.33;3.00;;;28.70;99.90;;;;;;4927274;29;20467;-74
2022/08/24 12:21:44;;;;;;;3.37;3.07;;;28.80;99.90;;;;;;4927418;29;20535;-72
2022/08/24 12:24:38;;;;;;;3.00;2.77;;;28.90;99.90;;;;;;4933864;28;20503;-72
2022/08/24 12:27:32;;;;;;;4.57;2.80;;;29.00;99.90;;;;;;4929002;28;20893;-73
2022/08/24 12:30:20;;;;;;;3.10;2.60;;;29.20;99.90;;;;;;4932160;29;20467;-73
2022/08/24 12:33:13;;;;;;;3.10;2.80;;;29.30;99.90;;;;;;4925899;29;20534;-72
2022/08/24 12:36:24;;;;;;;2.90;2.70;;;29.50;99.90;;;;;;4931671;29;20483;-72
2022/08/24 12:39:22;;;;;;;2.80;2.60;;;29.60;99.90;;;;;;4933554;29;20507;-72
2022/08/24 12:42:18;;;;;;;3.50;2.97;;;29.80;99.90;;;;;;4929439;29;21067;-72
2022/08/24 12:45:12;;;;;;;3.13;2.83;;;29.90;99.90;;;;;;4927679;29;20483;-72
2022/08/24 12:48:09;;;;;;;2.83;2.63;;;30.10;99.90;;;;;;4930504;29;20467;-72
2022/08/24 12:51:13;;;;;;;3.63;2.93;;;30.20;99.90;;;;;;4920390;29;20468;-72
2022/08/24 12:54:24;;;;;;;3.20;2.77;;;30.40;99.90;;;;;;4918912;29;20570;-73
2022/08/24 12:57:36;;;;;;;3.17;2.93;;;30.50;99.90;;;;;;4922940;29;21253;-72
2022/08/24 13:00:31;;;;;;;3.00;2.70;;;30.70;99.90;;;;;;4928369;29;20562;-73
2022/08/24 13:03:30;;;;;;;3.67;2.87;;;30.80;99.90;;;;;;4919827;29;21213;-73
2022/08/24 13:06:25;;;;;;;3.07;2.77;;;30.90;99.90;;;;;;4927992;29;20503;-73
2022/08/24 13:09:31;;;;;;;2.80;2.60;;;31.00;99.90;;;;;;4927168;29;20459;-72
2022/08/24 13:13:09;;;;;;;3.70;2.57;;;31.10;99.90;;;;;;4925271;29;20470;-73
2022/08/24 13:16:01;;;;;;;7.67;3.20;;;31.30;99.90;;;;;;4867578;29;20572;-73
2022/08/24 13:19:14;;;;;;;3.60;3.00;;;31.40;99.90;;;;;;4928505;29;21191;-73
2022/08/24 13:22:37;;;;;;;3.40;2.97;;;31.40;99.90;;;;;;4924387;29;20509;-73
2022/08/24 13:25:53;;;;;;;4.30;2.50;;;31.40;99.90;;;;;;4923540;29;20499;-72
2022/08/24 13:28:45;;;;;;;3.17;2.83;;;31.50;99.90;;;;;;4920041;29;20554;-73
2022/08/24 13:31:41;;;;;;;3.20;3.00;;;31.60;99.90;;;;;;4923388;29;20487;-73
2022/08/24 13:34:39;;;;;;;3.20;3.00;;;31.80;99.90;;;;;;4926037;29;20480;-74
2022/08/24 13:37:28;;;;;;;3.40;2.70;;;31.90;99.90;;;;;;4929303;28;20480;-76
2022/08/24 13:40:21;;;;;;;4.77;3.10;;;32.00;99.90;;;;;;4923371;29;20559;-73
2022/08/24 13:43:21;;;;;;;3.17;2.87;;;32.10;99.90;;;;;;4925070;29;21092;-73
2022/08/24 13:46:18;;;;;;;2.70;2.50;;;32.20;99.90;;;;;;4915279;29;20535;-74
2022/08/24 13:49:23;;;;;;;3.33;2.47;;;32.20;99.90;;;;;;4918185;29;20494;-75
2022/08/24 13:52:28;;;;;;;2.90;2.70;;;32.50;99.90;;;;;;4929588;29;20474;-75
2022/08/24 13:55:32;;;;;;;3.17;2.97;;;32.60;99.90;;;;;;4929064;29;20988;-76
2022/08/24 13:58:35;;;;;;;2.83;2.50;;;32.90;99.90;;;;;;4924267;29;20483;-75
2022/08/24 14:01:29;;;;;;;3.23;2.93;;;33.10;99.90;;;;;;4923917;29;20546;-73
2022/08/24 14:04:47;;;;;;;4.37;2.63;;;33.40;99.90;;;;;;4928030;29;20487;-74
2022/08/24 14:07:51;;;;;;;3.00;2.80;;;33.70;99.90;;;;;;4927689;29;20527;-73
2022/08/24 14:10:51;;;;;;;4.13;2.57;;;33.90;99.90;;;;;;4929335;29;20472;-74
2022/08/24 14:13:56;;;;;;;2.50;2.30;;;34.10;99.90;;;;;;4929939;29;20490;-73
2022/08/24 14:20:14;;;;;;;2.50;2.30;;;34.50;97.70;;;;;;4922211;29;20486;-74
2022/08/24 14:23:25;;;;;;;2.50;2.17;;;34.40;97.50;;;;;;4916198;29;20466;-74
2022/08/24 14:26:57;;;;;;;2.73;2.63;;;34.70;96.60;;;;;;4931252;29;20475;-74
2022/08/24 14:29:47;;;;;;;2.60;2.40;;;34.70;95.20;;;;;;4924058;29;21091;-74
2022/08/24 14:32:44;;;;;;;3.00;2.40;;;34.70;94.90;;;;;;4922688;29;20294;-74
2022/08/24 14:35:38;;;;;;;2.53;2.23;;;34.60;94.20;;;;;;4929652;29;20559;-74
2022/08/24 14:39:12;;;;;;;4.23;2.60;;;34.70;93.70;;;;;;4928488;29;20498;-74
2022/08/24 14:42:14;;;;;;;3.53;2.27;;;34.60;93.10;;;;;;4923356;29;20557;-74
2022/08/24 14:45:05;;;;;;;4.57;2.30;;;34.40;93.20;;;;;;4926717;29;20483;-74
2022/08/24 14:48:04;;;;;;;2.77;2.53;;;34.30;92.30;;;;;;4929902;29;20470;-74
2022/08/24 14:51:03;;;;;;;2.47;2.37;;;34.10;92.30;;;;;;4929941;29;20604;-73
2022/08/24 14:54:01;;;;;;;2.50;2.30;;;34.20;91.30;;;;;;4928125;29;20574;-72
2022/08/24 14:56:59;;;;;;;2.57;2.43;;;34.70;90.70;;;;;;4929165;29;20475;-73
2022/08/24 14:59:57;;;;;;;3.43;2.50;;;35.40;89.20;;;;;;4931100;29;20584;-72
2022/08/24 15:03:22;;;;;;;2.40;2.20;;;35.80;86.70;;;;;;4927546;28;20542;-73
2022/08/24 15:06:22;;;;;;;2.80;2.60;;;35.60;85.70;;;;;;4932718;29;21012;-73
2022/08/24 15:09:21;;;;;;;2.73;2.53;;;35.20;86.60;;;;;;4928354;29;20459;-73
2022/08/24 15:12:20;;;;;;;3.20;2.63;;;34.70;84.70;;;;;;4930054;29;20466;-73
2022/08/24 15:15:14;;;;;;;2.57;2.47;;;34.40;85.10;;;;;;4925970;29;21021;-73
2022/08/24 15:18:07;;;;;;;3.23;2.40;;;34.10;85.10;;;;;;4925464;29;20517;-73
2022/08/24 15:21:10;;;;;;;3.00;2.60;;;33.90;85.10;;;;;;4927681;29;20419;-73
2022/08/24 15:24:16;;;;;;;2.97;2.77;;;33.70;83.90;;;;;;4930503;29;20492;-73
2022/08/24 15:27:18;;;;;;;3.10;2.20;;;33.20;84.40;;;;;;4929466;29;20470;-73
2022/08/24 15:30:17;;;;;;;2.53;2.33;;;32.90;83.90;;;;;;4928042;29;20923;-73
2022/08/24 15:33:13;;;;;;;3.03;2.83;;;32.70;83.10;;;;;;4931265;29;20453;-75
2022/08/24 15:36:10;;;;;;;2.70;2.50;;;32.40;84.00;;;;;;4925917;29;20600;-73
2022/08/24 15:38:59;;;;;;;2.93;2.73;;;32.20;84.50;;;;;;4928225;29;20936;-73
2022/08/24 15:41:49;;;;;;;4.07;2.60;;;32.10;85.40;;;;;;4926688;29;21068;-73
2022/08/24 15:44:39;;;;;;;3.37;2.43;;;31.90;84.00;;;;;;4924840;29;20484;-75